createdAt,value
2022-10-13T00:01:32.746Z,10.93
2022-10-13T00:04:00.106Z,13.10
2022-10-13T00:06:27.883Z,10.77
2022-10-13T00:08:56.779Z,13.27
2022-10-13T00:11:25.672Z,13.27
2022-10-13T00:13:53.291Z,11.50
2022-10-13T00:16:21.659Z,9.50
2022-10-13T00:18:49.247Z,13.03
2022-10-13T00:21:18.014Z,11.63
2022-10-13T00:23:46.072Z,11.20
2022-10-13T00:26:19.559Z,11.73
2022-10-13T00:28:52.022Z,11.80
2022-10-13T00:31:21.397Z,10.23
2022-10-13T00:33:49.478Z,12.43
2022-10-13T00:36:18.843Z,12.97
2022-10-13T00:38:46.562Z,13.97
2022-10-13T00:41:14.176Z,11.13
2022-10-13T00:43:48.727Z,10.03
2022-10-13T00:46:16.527Z,11.53
2022-10-13T00:48:45.815Z,14.90
2022-10-13T00:51:15.671Z,12.67
2022-10-13T00:53:43.647Z,14.53
2022-10-13T00:56:12.364Z,15.77
2022-10-13T00:58:41.443Z,13.83
2022-10-13T01:01:09.274Z,15.63
2022-10-13T01:03:37.000Z,16.07
2022-10-13T01:06:05.119Z,14.50
2022-10-13T01:08:32.611Z,16.27
2022-10-13T01:11:11.893Z,13.67
2022-10-13T01:13:39.225Z,16.77
2022-10-13T01:16:06.771Z,14.87
2022-10-13T01:18:37.117Z,15.33
2022-10-13T01:21:14.826Z,12.70
2022-10-13T01:23:48.161Z,14.87
2022-10-13T01:26:15.632Z,15.77
2022-10-13T01:29:04.865Z,15.30
2022-10-13T01:31:35.822Z,14.87
2022-10-13T01:34:06.207Z,12.87
2022-10-13T01:36:37.291Z,12.43
2022-10-13T01:39:07.613Z,13.47
2022-10-13T01:41:39.690Z,11.73
2022-10-13T01:44:07.131Z,14.53
2022-10-13T01:46:37.239Z,14.80
2022-10-13T01:49:06.748Z,16.13
2022-10-13T01:51:34.470Z,13.10
2022-10-13T01:54:01.874Z,12.07
2022-10-13T01:56:29.208Z,11.57
2022-10-13T01:58:58.843Z,13.93
2022-10-13T02:01:30.413Z,12.83
2022-10-13T02:04:10.166Z,15.50
2022-10-13T02:06:45.310Z,13.50
2022-10-13T02:09:18.628Z,11.33
2022-10-13T02:11:49.073Z,13.70
2022-10-13T02:14:20.571Z,12.57
2022-10-13T02:16:48.310Z,12.17
2022-10-13T02:19:17.288Z,12.97
2022-10-13T02:21:45.501Z,11.77
2022-10-13T02:24:13.720Z,12.47
2022-10-13T02:26:42.174Z,12.80
2022-10-13T02:29:12.564Z,12.97
2022-10-13T02:31:40.347Z,13.13
2022-10-13T02:34:08.184Z,12.17
2022-10-13T02:36:37.863Z,13.03
2022-10-13T02:39:05.993Z,14.23
2022-10-13T02:41:33.385Z,11.30
2022-10-13T02:44:00.814Z,11.73
2022-10-13T02:46:34.817Z,11.37
2022-10-13T02:49:02.210Z,13.97
2022-10-13T02:51:30.952Z,13.13
2022-10-13T02:53:59.599Z,13.23
2022-10-13T02:56:26.981Z,15.27
2022-10-13T02:58:54.398Z,13.20
2022-10-13T03:01:21.777Z,15.67
2022-10-13T03:03:49.146Z,13.67
2022-10-13T03:06:16.496Z,16.63
2022-10-13T03:08:43.903Z,14.23
2022-10-13T03:11:11.238Z,12.90
2022-10-13T03:13:38.616Z,14.70
2022-10-13T03:16:07.166Z,14.00
2022-10-13T03:18:34.579Z,17.33
2022-10-13T03:21:03.387Z,14.70
2022-10-13T03:23:31.739Z,17.10
2022-10-13T03:25:59.155Z,13.37
2022-10-13T03:28:26.578Z,13.87
2022-10-13T03:31:07.645Z,17.23
2022-10-13T03:33:35.235Z,17.20
2022-10-13T03:36:03.203Z,17.07
2022-10-13T03:38:31.332Z,16.77
2022-10-13T03:40:58.651Z,21.03
2022-10-13T03:43:27.332Z,16.83
2022-10-13T03:46:01.677Z,17.97
2022-10-13T03:48:29.339Z,21.20
2022-10-13T03:50:57.014Z,19.30
2022-10-13T03:53:24.456Z,18.33
2022-10-13T03:55:52.988Z,21.03
2022-10-13T03:58:20.472Z,17.33
2022-10-13T04:00:50.995Z,22.20
2022-10-13T04:03:18.710Z,19.63
2022-10-13T04:05:46.294Z,20.20
2022-10-13T04:08:13.715Z,20.37
2022-10-13T04:10:41.552Z,23.33
2022-10-13T04:13:09.104Z,23.93
2022-10-13T04:15:41.673Z,27.47
2022-10-13T04:18:09.105Z,24.27
2022-10-13T04:20:38.003Z,24.07
2022-10-13T04:23:05.459Z,20.10
2022-10-13T04:25:35.203Z,17.60
2022-10-13T04:28:02.989Z,21.37
2022-10-13T04:30:30.833Z,17.30
2022-10-13T04:32:58.197Z,22.13
2022-10-13T04:35:25.656Z,23.40
2022-10-13T04:37:53.571Z,19.13
2022-10-13T04:40:20.953Z,20.83
2022-10-13T04:42:48.326Z,23.87
2022-10-13T04:45:15.906Z,25.50
2022-10-13T04:47:43.504Z,29.37
2022-10-13T04:50:11.392Z,29.40
2022-10-13T04:52:38.790Z,25.83
2022-10-13T04:55:06.371Z,26.67
2022-10-13T04:57:33.787Z,28.57
2022-10-13T05:00:01.738Z,26.50
2022-10-13T05:02:31.590Z,31.00
2022-10-13T05:04:59.201Z,29.90
2022-10-13T05:07:26.499Z,27.90
2022-10-13T05:09:54.027Z,26.67
2022-10-13T05:12:21.715Z,26.67
2022-10-13T05:14:50.477Z,24.13
2022-10-13T05:17:17.875Z,23.53
2022-10-13T05:19:45.318Z,25.00
2022-10-13T05:22:12.757Z,28.73
2022-10-13T05:24:41.944Z,25.87
2022-10-13T05:27:12.971Z,26.77
2022-10-13T05:29:41.005Z,25.07
2022-10-13T05:32:08.752Z,24.77
2022-10-13T05:34:36.174Z,25.87
2022-10-13T05:37:03.657Z,26.90
2022-10-13T05:39:32.422Z,27.40
2022-10-13T05:41:59.777Z,26.63
2022-10-13T05:44:27.370Z,29.27
2022-10-13T05:46:55.842Z,25.43
2022-10-13T05:49:23.272Z,25.93
2022-10-13T05:51:52.821Z,31.30
2022-10-13T05:54:24.406Z,27.50
2022-10-13T05:56:54.607Z,28.50
2022-10-13T05:59:26.776Z,26.23
2022-10-13T06:01:55.475Z,25.70
2022-10-13T06:04:52.455Z,27.83
2022-10-13T06:07:19.897Z,27.93
2022-10-13T06:09:47.350Z,27.30
2022-10-13T06:12:14.889Z,26.33
2022-10-13T06:14:42.281Z,27.20
2022-10-13T06:17:12.159Z,27.77
2022-10-13T06:19:45.486Z,28.80
2022-10-13T06:22:13.012Z,26.20
2022-10-13T06:24:40.485Z,27.37
2022-10-13T06:27:09.387Z,30.13
2022-10-13T06:29:37.213Z,26.77
2022-10-13T06:32:04.682Z,29.30
2022-10-13T06:34:32.086Z,30.73
2022-10-13T06:36:59.632Z,29.30
2022-10-13T06:39:27.114Z,32.63
2022-10-13T06:41:55.491Z,28.03
2022-10-13T06:44:30.705Z,32.33
2022-10-13T06:47:03.248Z,31.23
2022-10-13T06:49:30.687Z,29.43
2022-10-13T06:51:58.156Z,33.30
2022-10-13T06:54:25.526Z,29.17
2022-10-13T06:56:52.975Z,27.17
2022-10-13T06:59:21.179Z,23.33
2022-10-13T07:01:49.050Z,28.93
2022-10-13T07:04:17.309Z,27.70
2022-10-13T07:06:44.661Z,29.33
2022-10-13T07:09:12.069Z,27.73
2022-10-13T07:11:39.522Z,28.83
2022-10-13T07:14:06.951Z,28.97
2022-10-13T07:16:34.479Z,28.10
2022-10-13T07:19:02.240Z,30.27
2022-10-13T07:21:30.860Z,28.03
2022-10-13T07:23:58.352Z,31.47
2022-10-13T07:26:25.886Z,29.50
2022-10-13T07:28:53.661Z,29.10
2022-10-13T07:31:21.957Z,31.40
2022-10-13T07:33:51.247Z,34.17
2022-10-13T07:36:19.412Z,32.83
2022-10-13T07:38:47.275Z,29.47
2022-10-13T07:41:14.791Z,30.30
2022-10-13T07:43:42.397Z,29.30
2022-10-13T07:46:11.031Z,31.27
2022-10-13T07:48:38.561Z,29.97
2022-10-13T07:51:07.530Z,29.60
2022-10-13T07:53:35.633Z,32.63
2022-10-13T07:56:03.432Z,31.67
2022-10-13T07:58:30.920Z,26.13
2022-10-13T08:01:01.756Z,29.17
2022-10-13T08:03:30.337Z,31.90
2022-10-13T08:05:59.775Z,30.43
2022-10-13T08:08:27.282Z,31.53
2022-10-13T08:10:55.041Z,30.80
2022-10-13T08:13:24.032Z,30.43
2022-10-13T08:15:51.444Z,29.63
2022-10-13T08:18:18.829Z,30.97
2022-10-13T08:20:46.676Z,28.63
2022-10-13T08:23:14.382Z,31.37
2022-10-13T08:25:49.232Z,30.23
2022-10-13T08:28:18.942Z,30.17
2022-10-13T08:30:47.101Z,29.13
2022-10-13T08:33:14.586Z,32.20
2022-10-13T08:35:42.556Z,28.77
2022-10-13T08:38:10.112Z,29.00
2022-10-13T08:40:38.311Z,28.33
2022-10-13T08:43:06.832Z,31.00
2022-10-13T08:45:41.243Z,27.00
2022-10-13T08:48:28.119Z,31.10
2022-10-13T08:50:57.377Z,29.13
2022-10-13T08:53:27.491Z,29.67
2022-10-13T08:55:57.437Z,29.57
2022-10-13T08:58:31.359Z,28.67
2022-10-13T09:01:11.390Z,29.90
2022-10-13T09:03:48.149Z,29.97
2022-10-13T09:06:28.690Z,29.80
2022-10-13T09:09:00.702Z,32.60
2022-10-13T09:11:30.001Z,30.27
2022-10-13T09:13:58.732Z,29.10
2022-10-13T09:16:30.342Z,31.60
2022-10-13T09:19:12.885Z,31.87
2022-10-13T09:21:40.285Z,31.20
2022-10-13T09:24:08.655Z,31.07
2022-10-13T09:26:39.749Z,31.83
2022-10-13T09:29:11.488Z,31.63
2022-10-13T09:31:39.025Z,33.77
2022-10-13T09:34:14.661Z,33.17
2022-10-13T09:36:55.971Z,29.60
2022-10-13T09:39:23.526Z,32.00
2022-10-13T09:41:50.948Z,31.27
2022-10-13T09:44:32.002Z,30.37
2022-10-13T09:47:01.542Z,30.50
2022-10-13T09:49:47.550Z,32.00
2022-10-13T09:52:14.991Z,30.47
2022-10-13T09:54:57.565Z,28.87
2022-10-13T09:57:25.544Z,31.93
2022-10-13T09:59:54.646Z,30.33
2022-10-13T10:02:38.056Z,30.80
2022-10-13T10:05:30.573Z,29.93
2022-10-13T10:08:01.366Z,29.73
2022-10-13T10:10:35.973Z,32.23
2022-10-13T10:13:10.397Z,30.77
2022-10-13T10:15:40.762Z,29.10
2022-10-13T10:18:12.487Z,30.03
2022-10-13T10:20:51.505Z,31.20
2022-10-13T10:23:39.184Z,31.57
2022-10-13T10:26:10.126Z,33.30
2022-10-13T10:28:46.092Z,29.13
2022-10-13T10:31:22.350Z,31.37
2022-10-13T10:34:15.764Z,27.17
2022-10-13T10:36:48.937Z,31.40
2022-10-13T10:39:22.611Z,34.67
2022-10-13T10:42:08.235Z,30.23
2022-10-13T10:44:48.109Z,29.40
2022-10-13T10:47:26.674Z,30.77
2022-10-13T10:49:56.424Z,27.83
2022-10-13T10:52:27.534Z,29.83
2022-10-13T10:55:11.769Z,27.43
2022-10-13T10:57:46.528Z,30.33
2022-10-13T11:00:14.023Z,29.83
2022-10-13T11:03:00.545Z,28.53
2022-10-13T11:05:32.069Z,29.27
2022-10-13T11:08:00.290Z,31.60
2022-10-13T11:10:29.140Z,32.73
2022-10-13T11:12:56.527Z,30.80
2022-10-13T11:15:28.804Z,28.87
2022-10-13T11:17:56.172Z,28.43
2022-10-13T11:20:26.552Z,27.57
2022-10-13T11:22:59.844Z,29.03
2022-10-13T11:25:36.487Z,25.70
2022-10-13T11:28:22.946Z,26.40
2022-10-13T11:30:51.655Z,28.90
2022-10-13T11:33:37.298Z,26.93
2022-10-13T11:36:23.331Z,26.07
2022-10-13T11:38:54.204Z,29.37
2022-10-13T11:41:27.174Z,27.70
2022-10-13T11:44:02.233Z,26.43
2022-10-13T11:46:47.740Z,24.93
2022-10-13T11:49:18.221Z,29.77
2022-10-13T11:52:07.578Z,24.43
2022-10-13T11:54:41.181Z,28.37
2022-10-13T11:57:18.634Z,31.90
2022-10-13T11:59:47.544Z,29.53
2022-10-13T12:02:19.620Z,31.37
2022-10-13T12:05:00.405Z,27.57
2022-10-13T12:07:31.413Z,29.20
2022-10-13T12:09:58.911Z,27.73
2022-10-13T12:12:27.030Z,25.50
2022-10-13T12:14:55.749Z,29.87
2022-10-13T12:17:24.243Z,26.50
2022-10-13T12:19:52.177Z,24.13
2022-10-13T12:22:19.553Z,27.00
2022-10-13T12:25:00.895Z,26.27
2022-10-13T12:27:29.442Z,30.80
2022-10-13T12:29:56.848Z,29.80
2022-10-13T12:32:27.971Z,25.30
2022-10-13T12:34:55.653Z,23.67
2022-10-13T12:37:25.918Z,29.57
2022-10-13T12:39:53.829Z,26.50
2022-10-13T12:42:23.568Z,26.10
2022-10-13T12:44:51.045Z,25.53
2022-10-13T12:47:36.385Z,26.27
2022-10-13T12:50:23.597Z,25.30
2022-10-13T12:52:51.855Z,27.33
2022-10-13T12:55:20.432Z,26.57
2022-10-13T12:57:49.794Z,25.43
2022-10-13T13:00:20.482Z,24.77
2022-10-13T13:02:53.692Z,23.10
2022-10-13T13:05:41.057Z,25.40
2022-10-13T13:08:28.016Z,25.07
2022-10-13T13:10:56.053Z,23.23
2022-10-13T13:13:24.025Z,23.27
2022-10-13T13:15:53.065Z,24.57
2022-10-13T13:18:23.447Z,27.00
2022-10-13T13:20:50.885Z,23.90
2022-10-13T13:23:19.436Z,26.83
2022-10-13T13:25:47.434Z,23.27
2022-10-13T13:28:16.356Z,25.97
2022-10-13T13:30:43.989Z,24.03
2022-10-13T13:35:44.212Z,21.77
2022-10-13T13:38:11.577Z,21.43
2022-10-13T13:40:39.023Z,21.73
2022-10-13T13:43:06.448Z,22.23
2022-10-13T13:45:34.426Z,26.27
2022-10-13T13:48:02.540Z,22.07
2022-10-13T13:50:33.918Z,23.93
2022-10-13T13:53:01.851Z,24.47
2022-10-13T13:55:29.934Z,22.93
2022-10-13T13:57:57.737Z,21.23
2022-10-13T14:00:25.210Z,23.30
2022-10-13T14:02:56.330Z,20.60
2022-10-13T14:05:24.205Z,20.20
2022-10-13T14:07:53.821Z,20.93
2022-10-13T14:10:21.277Z,19.30
2022-10-13T14:12:48.952Z,19.13
2022-10-13T14:15:16.364Z,20.53
2022-10-13T14:17:43.736Z,22.43
2022-10-13T14:20:11.579Z,20.37
2022-10-13T14:22:39.743Z,18.27
2022-10-13T14:25:07.541Z,17.03
2022-10-13T14:27:36.667Z,18.67
2022-10-13T14:30:06.103Z,19.77
2022-10-13T14:32:34.007Z,16.20
2022-10-13T14:35:01.523Z,21.23
2022-10-13T14:37:32.979Z,21.40
2022-10-13T14:40:01.645Z,18.67
2022-10-13T14:42:29.089Z,18.90
2022-10-13T14:44:56.404Z,15.47
2022-10-13T14:47:24.079Z,19.07
2022-10-13T14:49:51.489Z,16.27
2022-10-13T14:52:18.902Z,15.07
2022-10-13T14:54:46.232Z,15.03
2022-10-13T14:57:16.160Z,19.93
2022-10-13T14:59:44.278Z,15.73
2022-10-13T15:02:13.073Z,17.60
2022-10-13T15:04:50.256Z,17.27
2022-10-13T15:07:18.676Z,17.27
2022-10-13T15:09:52.842Z,16.40
2022-10-13T15:12:28.310Z,19.87
2022-10-13T15:14:55.662Z,18.73
2022-10-13T15:17:23.031Z,18.17
2022-10-13T15:19:50.379Z,17.77
2022-10-13T15:22:17.953Z,15.53
2022-10-13T15:24:45.774Z,14.33
2022-10-13T15:27:13.123Z,20.17
2022-10-13T15:29:40.539Z,17.63
2022-10-13T15:32:18.783Z,16.67
2022-10-13T15:34:53.242Z,15.80
2022-10-13T15:37:20.669Z,15.47
2022-10-13T15:39:51.990Z,14.10
2022-10-13T15:42:22.438Z,14.00
2022-10-13T15:45:10.048Z,13.90
2022-10-13T15:47:38.007Z,13.63
2022-10-13T15:50:05.587Z,16.67
2022-10-13T15:52:35.154Z,11.23
2022-10-13T15:55:02.939Z,16.17
2022-10-13T15:57:31.624Z,13.67
2022-10-13T15:59:58.970Z,44.53
2022-10-13T16:02:26.469Z,31.10
2022-10-13T16:04:54.109Z,18.13
2022-10-13T16:07:21.598Z,17.10
2022-10-13T16:09:49.202Z,17.87
2022-10-13T16:12:16.871Z,18.60
2022-10-13T16:14:44.368Z,15.13
2022-10-13T16:17:11.702Z,15.53
2022-10-13T16:19:39.371Z,12.23
2022-10-13T16:22:06.683Z,12.07
2022-10-13T16:24:34.292Z,13.37
2022-10-13T16:27:02.206Z,12.93
2022-10-13T16:29:30.358Z,12.87
2022-10-13T16:31:57.760Z,13.70
2022-10-13T16:34:25.140Z,15.23
2022-10-13T16:36:52.588Z,16.27
2022-10-13T16:39:20.000Z,11.03
2022-10-13T16:41:47.645Z,16.13
2022-10-13T16:44:16.875Z,13.27
2022-10-13T16:46:44.709Z,12.77
2022-10-13T16:49:12.795Z,11.30
2022-10-13T16:51:40.364Z,10.67
2022-10-13T16:54:07.858Z,14.53
2022-10-13T16:56:35.360Z,12.17
2022-10-13T16:59:04.001Z,13.90
2022-10-13T17:01:32.408Z,11.70
2022-10-13T17:04:00.209Z,11.17
2022-10-13T17:06:28.719Z,11.90
2022-10-13T17:08:57.606Z,12.67
2022-10-13T17:11:30.019Z,12.23
2022-10-13T17:13:58.012Z,11.37
2022-10-13T17:16:25.817Z,13.57
2022-10-13T17:18:53.515Z,12.40
2022-10-13T17:21:23.900Z,16.63
2022-10-13T17:23:51.414Z,14.77
2022-10-13T17:26:21.043Z,14.10
2022-10-13T17:28:48.499Z,15.17
2022-10-13T17:31:17.532Z,14.23
2022-10-13T17:33:45.420Z,14.50
2022-10-13T17:36:20.365Z,15.00
2022-10-13T17:38:48.277Z,14.23
2022-10-13T17:41:16.227Z,12.53
2022-10-13T17:43:50.388Z,14.43
2022-10-13T17:49:07.729Z,12.03
2022-10-13T17:51:35.478Z,14.80
2022-10-13T17:54:02.961Z,12.10
2022-10-13T17:56:30.532Z,13.63
2022-10-13T17:58:57.905Z,14.73
2022-10-13T18:01:35.028Z,12.80
2022-10-13T18:04:06.919Z,14.33
2022-10-13T18:06:38.523Z,14.67
2022-10-13T18:09:07.232Z,12.03
2022-10-13T18:11:36.202Z,12.37
2022-10-13T18:14:03.589Z,11.87
2022-10-13T18:16:31.566Z,12.87
2022-10-13T18:18:58.954Z,11.50
2022-10-13T18:21:26.902Z,14.20
2022-10-13T18:23:55.676Z,13.63
2022-10-13T18:26:23.815Z,11.33
2022-10-13T18:28:52.196Z,11.80
2022-10-13T18:31:21.267Z,12.27
2022-10-13T18:33:50.924Z,11.57
2022-10-13T18:36:20.399Z,13.33
2022-10-13T18:38:48.136Z,17.67
2022-10-13T18:41:16.007Z,12.97
2022-10-13T18:43:43.421Z,13.30
2022-10-13T18:46:10.781Z,15.67
2022-10-13T18:48:38.170Z,12.57
2022-10-13T18:51:15.724Z,12.10
2022-10-13T18:53:43.971Z,14.63
2022-10-13T18:56:16.611Z,14.67
2022-10-13T18:58:44.260Z,13.00
2022-10-13T19:01:13.003Z,12.33
2022-10-13T19:03:41.273Z,14.23
2022-10-13T19:06:09.584Z,16.43
2022-10-13T19:08:37.147Z,13.37
2022-10-13T19:11:12.220Z,12.37
2022-10-13T19:13:39.936Z,14.93
2022-10-13T19:16:07.831Z,13.40
2022-10-13T19:18:35.857Z,11.73
2022-10-13T19:21:03.229Z,12.47
2022-10-13T19:23:31.113Z,11.83
2022-10-13T19:26:00.926Z,11.40
2022-10-13T19:28:28.411Z,13.27
2022-10-13T19:30:56.096Z,11.37
2022-10-13T19:33:23.600Z,13.47
2022-10-13T19:35:52.020Z,10.90
2022-10-13T19:38:19.527Z,13.70
2022-10-13T19:40:52.634Z,13.60
2022-10-13T19:43:21.620Z,9.87
2022-10-13T19:45:59.622Z,11.53
2022-10-13T19:48:27.365Z,14.77
2022-10-13T19:50:54.922Z,13.47
2022-10-13T19:53:22.394Z,13.37
2022-10-13T19:55:49.814Z,10.87
2022-10-13T19:58:17.904Z,11.83
2022-10-13T20:00:45.778Z,13.47
2022-10-13T20:03:14.028Z,12.50
2022-10-13T20:05:46.110Z,12.80
2022-10-13T20:08:13.960Z,12.73
2022-10-13T20:10:42.345Z,13.33
2022-10-13T20:13:10.208Z,13.97
2022-10-13T20:15:44.242Z,12.83
2022-10-13T20:18:13.203Z,14.00
2022-10-13T20:20:42.122Z,15.40
2022-10-13T20:23:10.101Z,13.40
2022-10-13T20:25:39.585Z,14.00
2022-10-13T20:28:07.148Z,13.03
2022-10-13T20:30:35.046Z,11.93
2022-10-13T20:33:03.027Z,12.70
2022-10-13T20:35:30.886Z,13.87
2022-10-13T20:37:58.539Z,16.07
2022-10-13T20:40:25.931Z,12.53
2022-10-13T20:42:53.541Z,10.77
2022-10-13T20:45:21.283Z,14.53
2022-10-13T20:47:48.844Z,12.97
2022-10-13T20:50:16.294Z,12.60
2022-10-13T20:52:43.629Z,12.20
2022-10-13T20:55:11.174Z,12.33
2022-10-13T20:57:38.767Z,13.07
2022-10-13T21:00:06.659Z,12.10
2022-10-13T21:02:34.168Z,10.80
2022-10-13T21:05:01.553Z,13.13
2022-10-13T21:07:29.011Z,11.90
2022-10-13T21:09:56.423Z,13.83
2022-10-13T21:12:23.840Z,13.97
2022-10-13T21:14:51.238Z,12.63
2022-10-13T21:17:18.915Z,13.37
2022-10-13T21:19:46.468Z,15.00
2022-10-13T21:22:13.899Z,10.83
2022-10-13T21:24:41.430Z,14.10
2022-10-13T21:27:08.819Z,14.90
2022-10-13T21:29:36.178Z,13.03
2022-10-13T21:32:03.555Z,12.97
2022-10-13T21:34:30.968Z,11.37
2022-10-13T21:36:58.324Z,14.80
2022-10-13T21:39:25.760Z,11.80
2022-10-13T21:41:53.182Z,14.93
2022-10-13T21:44:20.591Z,13.90
2022-10-13T21:46:47.909Z,12.67
2022-10-13T21:49:15.214Z,15.00
2022-10-13T21:51:42.543Z,13.80
2022-10-13T21:54:11.266Z,11.67
2022-10-13T21:56:39.418Z,13.13
2022-10-13T21:59:07.150Z,15.97
2022-10-13T22:01:34.657Z,16.27
2022-10-13T22:04:08.789Z,16.67
2022-10-13T22:06:36.287Z,19.13
2022-10-13T22:09:04.908Z,16.80
2022-10-13T22:11:33.155Z,15.90
2022-10-13T22:14:05.364Z,14.73
2022-10-13T22:16:35.246Z,17.60
2022-10-13T22:19:02.757Z,13.47
2022-10-13T22:21:32.723Z,14.37
2022-10-13T22:24:01.647Z,13.57
2022-10-13T22:26:29.916Z,19.03
2022-10-13T22:28:57.881Z,17.27
2022-10-13T22:31:25.625Z,16.43
2022-10-13T22:33:53.854Z,21.63
2022-10-13T22:36:24.703Z,17.20
2022-10-13T22:38:52.854Z,16.47
2022-10-13T22:41:20.589Z,16.10
2022-10-13T22:43:55.021Z,15.70
2022-10-13T22:46:23.755Z,17.13
2022-10-13T22:48:51.466Z,17.27
2022-10-13T22:51:20.563Z,15.43
2022-10-13T22:53:48.939Z,16.47
2022-10-13T22:56:18.160Z,16.80
2022-10-13T22:58:49.636Z,17.10
2022-10-13T23:01:17.372Z,13.80
2022-10-13T23:03:47.367Z,14.30
2022-10-13T23:06:15.416Z,16.93
2022-10-13T23:08:42.783Z,13.63
2022-10-13T23:11:10.722Z,14.40
2022-10-13T23:13:38.052Z,17.30
2022-10-13T23:16:06.880Z,14.80
2022-10-13T23:18:38.297Z,14.03
2022-10-13T23:21:10.911Z,14.87
2022-10-13T23:23:38.361Z,17.33
2022-10-13T23:26:06.797Z,13.40
2022-10-13T23:28:34.770Z,15.00
2022-10-13T23:31:07.425Z,14.37
2022-10-13T23:33:35.268Z,14.70
2022-10-13T23:36:03.140Z,14.90
2022-10-13T23:38:31.139Z,12.47
2022-10-13T23:41:05.907Z,13.53
2022-10-13T23:43:34.796Z,13.23
2022-10-13T23:46:02.238Z,12.03
2022-10-13T23:48:30.183Z,14.07
2022-10-13T23:50:57.612Z,12.37
2022-10-13T23:53:25.582Z,15.73
2022-10-13T23:55:52.912Z,12.57
2022-10-13T23:58:26.337Z,12.10
